createdAt,value
2022-07-27T00:01:08.177Z,1.23
2022-07-27T00:03:36.233Z,1.00
2022-07-27T00:06:07.654Z,1.10
2022-07-27T00:08:36.072Z,1.10
2022-07-27T00:11:04.355Z,1.07
2022-07-27T00:13:32.538Z,1.13
2022-07-27T00:16:01.085Z,1.20
2022-07-27T00:18:29.147Z,1.10
2022-07-27T00:20:56.869Z,1.00
2022-07-27T00:23:24.747Z,1.00
2022-07-27T00:25:52.912Z,1.03
2022-07-27T00:28:21.034Z,1.20
2022-07-27T00:30:47.914Z,1.20
2022-07-27T00:33:17.365Z,1.00
2022-07-27T00:35:45.332Z,1.00
2022-07-27T00:38:13.718Z,1.13
2022-07-27T00:40:40.875Z,1.07
2022-07-27T00:43:07.913Z,1.20
2022-07-27T00:45:35.752Z,1.10
2022-07-27T00:48:04.169Z,1.20
2022-07-27T00:50:32.672Z,1.20
2022-07-27T00:53:00.187Z,1.20
2022-07-27T00:55:29.007Z,1.23
2022-07-27T00:57:59.429Z,1.30
2022-07-27T01:00:28.926Z,1.10
2022-07-27T01:02:57.493Z,1.10
2022-07-27T01:05:35.795Z,1.10
2022-07-27T01:08:05.540Z,1.10
2022-07-27T01:10:34.096Z,1.50
2022-07-27T01:13:03.368Z,1.23
2022-07-27T01:15:36.811Z,1.20
2022-07-27T01:18:25.958Z,1.20
2022-07-27T01:20:55.330Z,1.17
2022-07-27T01:23:24.062Z,1.10
2022-07-27T01:25:51.995Z,1.30
2022-07-27T01:28:20.662Z,1.30
2022-07-27T01:30:48.035Z,1.17
2022-07-27T01:33:16.647Z,1.10
2022-07-27T01:35:43.962Z,1.10
2022-07-27T01:38:12.375Z,1.10
2022-07-27T01:40:41.210Z,1.20
2022-07-27T01:43:09.110Z,1.20
2022-07-27T01:45:37.010Z,1.20
2022-07-27T01:48:05.094Z,1.10
2022-07-27T01:50:32.427Z,1.10
2022-07-27T01:53:00.618Z,1.00
2022-07-27T01:55:27.925Z,0.90
2022-07-27T01:58:07.343Z,1.00
2022-07-27T02:00:35.655Z,0.97
2022-07-27T02:03:04.945Z,1.10
2022-07-27T02:05:32.042Z,0.90
2022-07-27T02:08:00.087Z,1.13
2022-07-27T02:10:27.112Z,1.10
2022-07-27T02:12:55.301Z,1.10
2022-07-27T02:15:25.794Z,1.10
2022-07-27T02:17:54.593Z,1.00
2022-07-27T02:20:25.139Z,1.00
2022-07-27T02:22:52.900Z,0.93
2022-07-27T02:25:20.971Z,1.00
2022-07-27T02:27:49.002Z,1.10
2022-07-27T02:30:17.679Z,1.00
2022-07-27T02:32:46.011Z,1.00
2022-07-27T02:35:18.934Z,1.03
2022-07-27T02:37:49.003Z,1.00
2022-07-27T02:40:17.488Z,0.90
2022-07-27T02:42:46.995Z,0.90
2022-07-27T02:45:15.387Z,1.00
2022-07-27T02:47:44.020Z,1.20
2022-07-27T02:50:11.176Z,1.13
2022-07-27T02:52:40.400Z,1.10
2022-07-27T02:55:08.794Z,1.30
2022-07-27T02:57:41.189Z,1.20
2022-07-27T03:00:12.810Z,1.10
2022-07-27T03:02:41.891Z,1.10
2022-07-27T03:05:10.701Z,1.10
2022-07-27T03:07:38.974Z,1.10
2022-07-27T03:10:07.126Z,1.00
2022-07-27T03:12:35.281Z,1.00
2022-07-27T03:15:09.727Z,1.03
2022-07-27T03:17:37.862Z,1.20
2022-07-27T03:20:08.792Z,1.20
2022-07-27T03:22:38.837Z,1.10
2022-07-27T03:25:08.657Z,1.00
2022-07-27T03:27:36.782Z,1.00
2022-07-27T03:30:06.334Z,1.10
2022-07-27T03:32:34.198Z,1.10
2022-07-27T03:35:03.533Z,1.10
2022-07-27T03:37:31.587Z,1.00
2022-07-27T03:39:59.838Z,1.10
2022-07-27T03:42:28.045Z,2.13
2022-07-27T03:44:56.084Z,1.97
2022-07-27T03:47:25.240Z,1.03
2022-07-27T03:49:53.511Z,1.17
2022-07-27T03:52:21.572Z,1.10
2022-07-27T03:54:50.358Z,1.00
2022-07-27T03:57:19.472Z,1.00
2022-07-27T03:59:47.625Z,1.00
2022-07-27T04:02:15.904Z,1.00
2022-07-27T04:04:44.242Z,0.90
2022-07-27T04:07:12.583Z,0.87
2022-07-27T04:09:39.852Z,0.90
2022-07-27T04:12:09.555Z,1.03
2022-07-27T04:14:38.431Z,1.00
2022-07-27T04:17:06.981Z,0.90
2022-07-27T04:19:35.272Z,1.47
2022-07-27T04:22:03.422Z,1.00
2022-07-27T04:24:31.552Z,0.90
2022-07-27T04:27:00.141Z,1.10
2022-07-27T04:29:28.373Z,1.10
2022-07-27T04:31:56.462Z,1.10
2022-07-27T04:34:25.547Z,1.00
2022-07-27T04:36:53.405Z,1.10
2022-07-27T04:39:22.510Z,1.00
2022-07-27T04:41:50.564Z,1.00
2022-07-27T04:44:18.721Z,1.00
2022-07-27T04:46:48.043Z,1.00
2022-07-27T04:49:16.840Z,0.90
2022-07-27T04:51:46.148Z,1.10
2022-07-27T04:54:14.726Z,1.10
2022-07-27T04:56:43.319Z,1.10
2022-07-27T04:59:11.768Z,1.10
2022-07-27T05:01:40.414Z,1.10
2022-07-27T05:04:08.767Z,1.57
2022-07-27T05:06:36.743Z,1.00
2022-07-27T05:09:04.908Z,1.10
2022-07-27T05:11:32.927Z,2.10
2022-07-27T05:14:00.907Z,1.10
2022-07-27T05:16:30.781Z,1.00
2022-07-27T05:18:59.211Z,1.07
2022-07-27T05:21:29.607Z,1.30
2022-07-27T05:23:57.992Z,1.60
2022-07-27T05:26:26.285Z,1.20
2022-07-27T05:28:54.984Z,1.87
2022-07-27T05:31:23.247Z,1.20
2022-07-27T05:33:58.231Z,1.40
2022-07-27T05:36:27.208Z,1.30
2022-07-27T05:38:55.277Z,1.40
2022-07-27T05:41:25.730Z,1.40
2022-07-27T05:43:55.238Z,1.40
2022-07-27T05:46:23.500Z,1.50
2022-07-27T05:48:51.559Z,1.50
2022-07-27T05:51:20.006Z,1.70
2022-07-27T05:53:48.317Z,1.40
2022-07-27T05:56:16.662Z,1.50
2022-07-27T05:58:44.841Z,1.80
2022-07-27T06:01:13.690Z,1.80
2022-07-27T06:03:42.917Z,1.67
2022-07-27T06:06:30.184Z,1.63
2022-07-27T06:08:58.744Z,1.70
2022-07-27T06:11:27.480Z,1.60
2022-07-27T06:13:56.114Z,1.60
2022-07-27T06:16:24.469Z,1.50
2022-07-27T06:18:52.415Z,1.60
2022-07-27T06:21:25.891Z,1.80
2022-07-27T06:23:55.143Z,1.63
2022-07-27T06:26:23.591Z,1.60
2022-07-27T06:28:52.858Z,1.70
2022-07-27T06:31:20.824Z,1.50
2022-07-27T06:33:50.979Z,1.57
2022-07-27T06:36:21.175Z,1.57
2022-07-27T06:38:49.721Z,1.63
2022-07-27T06:41:18.323Z,1.40
2022-07-27T06:43:46.936Z,1.40
2022-07-27T06:46:15.629Z,2.30
2022-07-27T06:48:44.056Z,1.50
2022-07-27T06:51:12.334Z,1.80
2022-07-27T06:53:40.411Z,1.80
2022-07-27T06:56:08.466Z,1.97
2022-07-27T06:58:37.720Z,1.80
2022-07-27T07:01:05.997Z,1.50
2022-07-27T07:03:34.680Z,1.87
2022-07-27T07:06:02.878Z,1.50
2022-07-27T07:08:31.204Z,2.10
2022-07-27T07:10:59.143Z,1.50
2022-07-27T07:13:27.496Z,3.17
2022-07-27T07:15:56.556Z,1.80
2022-07-27T07:18:24.581Z,1.60
2022-07-27T07:20:53.680Z,1.60
2022-07-27T07:23:21.863Z,1.40
2022-07-27T07:25:50.295Z,1.60
2022-07-27T07:28:22.334Z,1.40
2022-07-27T07:30:50.887Z,1.50
2022-07-27T07:33:19.880Z,1.50
2022-07-27T07:36:13.615Z,1.50
2022-07-27T07:38:36.130Z,1.60
2022-07-27T07:41:05.566Z,1.67
2022-07-27T07:43:35.882Z,1.90
2022-07-27T07:46:04.055Z,1.90
2022-07-27T07:48:32.992Z,1.70
2022-07-27T07:51:02.305Z,1.70
2022-07-27T07:53:30.729Z,3.40
2022-07-27T07:56:00.032Z,1.80
2022-07-27T07:58:28.686Z,1.70
2022-07-27T08:00:57.457Z,2.23
2022-07-27T08:03:25.601Z,2.10
2022-07-27T08:05:53.772Z,1.97
2022-07-27T08:08:24.306Z,2.20
2022-07-27T08:10:53.040Z,2.20
2022-07-27T08:13:22.393Z,2.30
2022-07-27T08:15:53.044Z,2.00
2022-07-27T08:18:21.655Z,2.10
2022-07-27T08:20:49.667Z,2.30
2022-07-27T08:23:18.050Z,2.30
2022-07-27T08:25:46.733Z,2.13
2022-07-27T08:28:15.951Z,2.20
2022-07-27T08:30:46.480Z,3.53
2022-07-27T08:33:14.636Z,2.93
2022-07-27T08:35:42.837Z,2.73
2022-07-27T08:38:11.323Z,2.00
2022-07-27T08:40:44.370Z,2.30
2022-07-27T08:43:24.396Z,2.33
2022-07-27T08:45:58.405Z,2.30
2022-07-27T08:48:28.223Z,2.97
2022-07-27T08:50:57.097Z,2.60
2022-07-27T08:53:25.574Z,2.50
2022-07-27T08:55:56.857Z,2.30
2022-07-27T08:58:24.931Z,3.17
2022-07-27T09:00:53.129Z,3.00
2022-07-27T09:03:23.340Z,2.80
2022-07-27T09:05:55.788Z,2.60
2022-07-27T09:08:28.810Z,3.00
2022-07-27T09:11:01.261Z,3.17
2022-07-27T09:13:33.460Z,3.20
2022-07-27T09:16:19.599Z,2.60
2022-07-27T09:18:58.034Z,2.73
2022-07-27T09:21:26.333Z,2.57
2022-07-27T09:23:59.030Z,2.50
2022-07-27T09:26:33.769Z,2.40
2022-07-27T09:29:14.097Z,2.40
2022-07-27T09:31:51.955Z,2.90
2022-07-27T09:34:32.731Z,2.67
2022-07-27T09:37:05.643Z,1.97
2022-07-27T09:39:34.143Z,2.30
2022-07-27T09:42:03.043Z,2.20
2022-07-27T09:44:43.878Z,2.73
2022-07-27T09:47:29.392Z,2.70
2022-07-27T09:50:16.383Z,2.17
2022-07-27T09:52:45.582Z,2.17
2022-07-27T09:55:14.256Z,2.07
2022-07-27T09:57:58.715Z,2.20
2022-07-27T10:00:27.358Z,3.90
2022-07-27T10:02:56.202Z,2.00
2022-07-27T10:05:24.460Z,2.20
2022-07-27T10:07:54.434Z,2.20
2022-07-27T10:10:23.824Z,2.60
2022-07-27T10:12:55.165Z,2.13
2022-07-27T10:15:25.199Z,2.23
2022-07-27T10:18:10.497Z,2.03
2022-07-27T10:20:47.241Z,1.87
2022-07-27T10:23:30.160Z,1.90
2022-07-27T10:26:18.780Z,1.97
2022-07-27T10:28:57.082Z,2.07
2022-07-27T10:31:28.736Z,2.00
2022-07-27T10:33:58.702Z,1.80
2022-07-27T10:36:32.779Z,2.50
2022-07-27T10:39:03.920Z,2.17
2022-07-27T10:41:35.825Z,3.03
2022-07-27T10:44:21.479Z,2.10
2022-07-27T10:46:57.694Z,2.00
2022-07-27T10:49:41.643Z,2.40
2022-07-27T10:52:49.578Z,2.13
2022-07-27T10:55:36.374Z,2.20
2022-07-27T10:58:09.165Z,2.30
2022-07-27T11:00:55.603Z,2.10
2022-07-27T11:03:34.200Z,1.87
2022-07-27T11:06:32.641Z,2.00
2022-07-27T11:11:49.752Z,1.83
2022-07-27T11:14:19.557Z,2.10
2022-07-27T11:17:33.449Z,1.90
2022-07-27T11:19:59.012Z,1.90
2022-07-27T11:25:30.796Z,2.20
2022-07-27T11:27:58.858Z,2.10
2022-07-27T11:30:28.957Z,2.50
2022-07-27T11:32:57.158Z,2.23
2022-07-27T11:35:25.438Z,2.40
2022-07-27T11:38:05.480Z,2.30
2022-07-27T11:40:59.875Z,2.10
2022-07-27T11:43:45.589Z,2.00
2022-07-27T11:46:25.005Z,2.20
2022-07-27T11:49:09.302Z,1.87
2022-07-27T11:51:44.247Z,2.00
2022-07-27T11:54:36.722Z,1.90
2022-07-27T11:57:13.084Z,2.00
2022-07-27T11:59:45.147Z,2.00
2022-07-27T12:02:18.010Z,1.87
2022-07-27T12:04:49.332Z,2.20
2022-07-27T12:07:22.161Z,2.20
2022-07-27T12:09:58.915Z,2.13
2022-07-27T12:12:29.227Z,2.77
2022-07-27T12:18:09.123Z,2.13
2022-07-27T12:20:37.809Z,2.73
2022-07-27T12:23:09.802Z,1.80
2022-07-27T12:25:39.077Z,4.30
2022-07-27T12:28:12.730Z,1.80
2022-07-27T12:30:48.213Z,1.80
2022-07-27T12:33:37.335Z,1.90
2022-07-27T12:36:08.022Z,1.80
2022-07-27T12:38:48.875Z,2.00
2022-07-27T12:41:35.474Z,1.90
2022-07-27T12:44:12.190Z,2.00
2022-07-27T12:47:01.881Z,1.70
2022-07-27T12:49:35.829Z,2.00
2022-07-27T12:52:11.117Z,2.30
2022-07-27T12:54:38.826Z,2.73
2022-07-27T12:57:07.118Z,2.10
2022-07-27T12:59:34.395Z,2.23
2022-07-27T13:02:02.725Z,2.17
2022-07-27T13:04:30.887Z,1.83
2022-07-27T13:06:58.400Z,2.10
2022-07-27T13:09:26.288Z,1.63
2022-07-27T13:12:13.897Z,2.00
2022-07-27T13:14:43.413Z,1.70
2022-07-27T13:17:10.567Z,2.10
2022-07-27T13:19:37.417Z,1.87
2022-07-27T13:22:05.795Z,2.20
2022-07-27T13:24:33.413Z,2.40
2022-07-27T13:27:01.618Z,2.30
2022-07-27T13:29:29.641Z,1.90
2022-07-27T13:31:57.786Z,1.93
2022-07-27T13:34:26.397Z,2.03
2022-07-27T13:36:54.707Z,1.80
2022-07-27T13:39:22.458Z,1.90
2022-07-27T13:41:55.199Z,1.90
2022-07-27T13:44:49.928Z,1.67
2022-07-27T13:47:11.738Z,1.83
2022-07-27T13:49:39.728Z,1.93
2022-07-27T13:52:09.380Z,1.80
2022-07-27T13:54:36.718Z,1.80
2022-07-27T13:57:04.887Z,3.00
2022-07-27T13:59:32.697Z,2.80
2022-07-27T14:02:00.920Z,2.07
2022-07-27T14:04:29.697Z,1.97
2022-07-27T14:06:59.764Z,2.13
2022-07-27T14:09:47.664Z,2.30
2022-07-27T14:12:15.644Z,2.30
2022-07-27T14:14:44.080Z,2.07
2022-07-27T14:17:12.730Z,2.20
2022-07-27T14:19:40.904Z,2.10
2022-07-27T14:22:11.743Z,1.90
2022-07-27T14:24:40.083Z,2.00
2022-07-27T14:27:07.706Z,2.00
2022-07-27T14:29:36.029Z,1.70
2022-07-27T14:32:04.033Z,1.87
2022-07-27T14:34:32.017Z,1.90
2022-07-27T14:36:59.739Z,1.90
2022-07-27T14:39:28.008Z,2.00
2022-07-27T14:41:55.665Z,1.90
2022-07-27T14:44:23.683Z,2.00
2022-07-27T14:46:51.661Z,2.47
2022-07-27T14:49:22.595Z,1.90
2022-07-27T14:51:51.341Z,1.83
2022-07-27T14:54:19.957Z,2.10
2022-07-27T14:56:47.643Z,2.10
2022-07-27T14:59:15.072Z,2.30
2022-07-27T15:01:43.885Z,2.37
2022-07-27T15:04:11.673Z,2.30
2022-07-27T15:06:39.990Z,1.90
2022-07-27T15:09:09.021Z,1.90
2022-07-27T15:11:37.766Z,2.20
2022-07-27T15:14:05.562Z,2.30
2022-07-27T15:16:35.677Z,4.13
2022-07-27T15:19:03.769Z,2.10
2022-07-27T15:21:31.940Z,2.30
2022-07-27T15:23:59.645Z,2.00
2022-07-27T15:26:27.989Z,2.10
2022-07-27T15:28:55.654Z,2.30
2022-07-27T15:31:26.102Z,2.13
2022-07-27T15:33:54.116Z,2.20
2022-07-27T15:36:33.142Z,2.10
2022-07-27T15:39:02.817Z,2.17
2022-07-27T15:41:32.995Z,1.70
2022-07-27T15:44:01.363Z,2.00
2022-07-27T15:46:28.937Z,1.80
2022-07-27T15:48:57.277Z,1.90
2022-07-27T15:51:26.162Z,1.97
2022-07-27T15:53:55.888Z,1.90
2022-07-27T15:56:25.031Z,1.90
2022-07-27T15:58:52.899Z,1.70
2022-07-27T16:01:21.514Z,2.17
2022-07-27T16:03:50.774Z,1.70
2022-07-27T16:06:19.190Z,1.77
2022-07-27T16:08:48.174Z,1.80
2022-07-27T16:11:16.118Z,1.80
2022-07-27T16:13:43.621Z,1.77
2022-07-27T16:16:30.310Z,2.00
2022-07-27T16:19:12.599Z,1.67
2022-07-27T16:21:53.321Z,1.60
2022-07-27T16:24:22.277Z,1.60
2022-07-27T16:26:50.613Z,1.57
2022-07-27T16:29:19.060Z,1.60
2022-07-27T16:31:47.824Z,2.43
2022-07-27T16:34:16.758Z,1.40
2022-07-27T16:36:45.102Z,1.90
2022-07-27T16:39:13.120Z,1.70
2022-07-27T16:41:41.517Z,1.70
2022-07-27T16:44:09.685Z,1.80
2022-07-27T16:46:38.132Z,1.50
2022-07-27T16:49:05.659Z,1.90
2022-07-27T16:51:33.679Z,1.70
2022-07-27T16:54:02.542Z,1.73
2022-07-27T16:56:30.895Z,1.57
2022-07-27T16:58:59.681Z,1.80
2022-07-27T17:01:29.070Z,1.73
2022-07-27T17:03:58.714Z,2.10
2022-07-27T17:06:27.752Z,1.97
2022-07-27T17:08:55.855Z,1.40
2022-07-27T17:11:25.124Z,1.83
2022-07-27T17:13:58.268Z,1.90
2022-07-27T17:16:28.830Z,2.77
2022-07-27T17:18:56.788Z,1.70
2022-07-27T17:21:25.344Z,1.90
2022-07-27T17:23:52.678Z,1.80
2022-07-27T17:26:19.953Z,1.90
2022-07-27T17:28:51.480Z,2.23
2022-07-27T17:31:21.100Z,1.67
2022-07-27T17:33:50.253Z,1.80
2022-07-27T17:36:17.764Z,1.60
2022-07-27T17:38:47.573Z,1.93
2022-07-27T17:41:21.910Z,1.60
2022-07-27T17:43:52.842Z,1.70
2022-07-27T17:46:22.914Z,1.70
2022-07-27T17:48:51.631Z,1.60
2022-07-27T17:51:23.409Z,2.00
2022-07-27T17:53:51.857Z,1.70
2022-07-27T17:56:19.825Z,1.57
2022-07-27T17:58:48.505Z,1.50
2022-07-27T18:01:15.942Z,1.60
2022-07-27T18:03:44.844Z,1.70
2022-07-27T18:06:13.460Z,1.60
2022-07-27T18:08:40.698Z,1.70
2022-07-27T18:11:13.300Z,1.70
2022-07-27T18:13:44.380Z,1.70
2022-07-27T18:16:13.258Z,1.60
2022-07-27T18:18:42.414Z,1.40
2022-07-27T18:21:11.006Z,1.60
2022-07-27T18:23:39.572Z,1.60
2022-07-27T18:26:06.776Z,1.70
2022-07-27T18:28:39.387Z,1.80
2022-07-27T18:31:09.604Z,1.70
2022-07-27T18:33:40.684Z,1.70
2022-07-27T18:36:07.838Z,1.80
2022-07-27T18:38:35.874Z,1.90
2022-07-27T18:41:03.935Z,1.80
2022-07-27T18:43:32.856Z,1.90
2022-07-27T18:46:01.062Z,1.50
2022-07-27T18:48:29.102Z,1.50
2022-07-27T18:50:57.005Z,1.70
2022-07-27T18:53:25.697Z,1.70
2022-07-27T18:55:56.584Z,1.80
2022-07-27T18:58:25.341Z,1.60
2022-07-27T19:00:52.984Z,1.70
2022-07-27T19:03:24.723Z,1.80
2022-07-27T19:05:56.420Z,1.70
2022-07-27T19:08:24.974Z,1.70
2022-07-27T19:10:53.713Z,1.60
2022-07-27T19:13:21.777Z,1.70
2022-07-27T19:15:49.773Z,1.50
2022-07-27T19:18:17.423Z,1.53
2022-07-27T19:20:44.697Z,1.50
2022-07-27T19:23:13.081Z,1.70
2022-07-27T19:25:41.002Z,1.50
2022-07-27T19:28:09.171Z,1.50
2022-07-27T19:30:38.763Z,1.40
2022-07-27T19:33:06.716Z,1.50
2022-07-27T19:35:35.154Z,1.40
2022-07-27T19:38:02.794Z,1.40
2022-07-27T19:40:46.738Z,1.60
2022-07-27T19:43:15.227Z,1.70
2022-07-27T19:45:43.471Z,1.50
2022-07-27T19:48:11.280Z,1.60
2022-07-27T19:50:40.375Z,1.40
2022-07-27T19:53:08.806Z,1.50
2022-07-27T19:55:35.831Z,1.80
2022-07-27T19:58:04.174Z,1.70
2022-07-27T20:00:32.044Z,1.40
2022-07-27T20:03:00.214Z,1.70
2022-07-27T20:05:28.812Z,1.80
2022-07-27T20:07:56.659Z,1.30
2022-07-27T20:10:25.230Z,1.50
2022-07-27T20:12:53.769Z,1.40
2022-07-27T20:15:22.535Z,1.30
2022-07-27T20:17:51.046Z,1.30
2022-07-27T20:20:19.605Z,1.60
2022-07-27T20:22:46.650Z,1.40
2022-07-27T20:25:15.323Z,1.40
2022-07-27T20:27:43.083Z,1.50
2022-07-27T20:30:14.524Z,1.47
2022-07-27T20:32:43.252Z,1.40
2022-07-27T20:35:10.886Z,1.10
2022-07-27T20:37:39.703Z,1.60
2022-07-27T20:40:11.262Z,1.30
2022-07-27T20:42:41.199Z,1.50
2022-07-27T20:45:12.694Z,1.40
2022-07-27T20:47:42.833Z,1.60
2022-07-27T20:50:13.267Z,1.37
2022-07-27T20:52:42.127Z,1.27
2022-07-27T20:55:12.004Z,1.40
2022-07-27T20:57:40.155Z,1.30
2022-07-27T21:00:08.768Z,1.37
2022-07-27T21:02:36.919Z,1.30
2022-07-27T21:05:06.481Z,1.40
2022-07-27T21:07:34.412Z,1.50
2022-07-27T21:10:01.250Z,1.53
2022-07-27T21:12:28.782Z,1.40
2022-07-27T21:14:56.788Z,1.50
2022-07-27T21:17:23.765Z,1.50
2022-07-27T21:19:51.873Z,1.50
2022-07-27T21:22:20.259Z,1.40
2022-07-27T21:24:49.510Z,3.60
2022-07-27T21:27:20.929Z,1.60
2022-07-27T21:29:50.160Z,1.40
2022-07-27T21:32:18.879Z,1.40
2022-07-27T21:34:45.914Z,1.20
2022-07-27T21:37:14.109Z,1.40
2022-07-27T21:39:42.064Z,1.30
2022-07-27T21:42:09.902Z,1.30
2022-07-27T21:44:37.430Z,0.80
2022-07-27T21:47:11.487Z,1.30
2022-07-27T21:49:42.151Z,1.30
2022-07-27T21:52:11.137Z,1.20
2022-07-27T21:54:38.993Z,1.10
2022-07-27T21:57:07.184Z,1.33
2022-07-27T21:59:34.913Z,1.30
2022-07-27T22:02:03.037Z,1.30
2022-07-27T22:04:30.786Z,1.30
2022-07-27T22:06:58.708Z,1.40
2022-07-27T22:09:25.804Z,1.40
2022-07-27T22:11:54.179Z,1.40
2022-07-27T22:14:23.801Z,1.57
2022-07-27T22:16:53.012Z,1.33
2022-07-27T22:19:21.241Z,1.27
2022-07-27T22:21:49.131Z,1.20
2022-07-27T22:24:17.616Z,1.17
2022-07-27T22:26:45.764Z,1.20
2022-07-27T22:29:12.821Z,1.30
2022-07-27T22:31:41.187Z,1.30
2022-07-27T22:34:08.769Z,1.10
2022-07-27T22:36:36.747Z,1.20
2022-07-27T22:39:03.896Z,1.20
2022-07-27T22:41:32.266Z,1.17
2022-07-27T22:43:59.743Z,1.23
2022-07-27T22:46:29.999Z,1.20
2022-07-27T22:48:58.032Z,1.20
2022-07-27T22:51:49.534Z,1.10
2022-07-27T22:54:14.111Z,1.60
2022-07-27T22:56:42.244Z,1.20
2022-07-27T22:59:09.794Z,1.10
2022-07-27T23:01:47.108Z,1.20
2022-07-27T23:04:16.986Z,1.10
2022-07-27T23:06:46.520Z,1.10
2022-07-27T23:09:15.485Z,1.10
2022-07-27T23:11:44.054Z,1.10
2022-07-27T23:14:12.924Z,2.13
2022-07-27T23:16:41.062Z,1.00
2022-07-27T23:19:09.512Z,1.13
2022-07-27T23:21:37.508Z,1.20
2022-07-27T23:24:05.901Z,1.00
2022-07-27T23:26:32.827Z,1.10
2022-07-27T23:29:02.461Z,1.10
2022-07-27T23:31:30.047Z,1.10
2022-07-27T23:33:58.530Z,1.00
2022-07-27T23:36:25.945Z,1.00
2022-07-27T23:38:54.339Z,1.10
2022-07-27T23:41:22.625Z,1.00
2022-07-27T23:43:50.812Z,1.13
2022-07-27T23:46:19.095Z,1.10
2022-07-27T23:48:46.856Z,1.00
2022-07-27T23:51:21.069Z,1.00
2022-07-27T23:53:48.901Z,1.30
2022-07-27T23:56:17.061Z,1.00
2022-07-27T23:58:45.924Z,0.90
